sensor_id;sensor_type;location;lat;lon;timestamp;pressure;altitude;pressure_sealevel;temperature;humidity
42603;BME280;28233;55.748;48.752;2024-01-07T00:01:20;98791.50;;;-21.65;85.74
42603;BME280;28233;55.748;48.752;2024-01-07T00:03:23;98800.69;;;-21.61;86.49
42603;BME280;28233;55.748;48.752;2024-01-07T00:05:26;98785.19;;;-21.52;86.93
42603;BME280;28233;55.748;48.752;2024-01-07T00:07:31;98779.97;;;-21.43;87.73
42603;BME280;28233;55.748;48.752;2024-01-07T00:09:33;98786.41;;;-21.37;87.26
42603;BME280;28233;55.748;48.752;2024-01-07T00:11:36;98783.81;;;-21.27;87.97
42603;BME280;28233;55.748;48.752;2024-01-07T00:13:39;98782.28;;;-21.20;87.33
42603;BME280;28233;55.748;48.752;2024-01-07T00:15:42;98779.53;;;-21.19;86.79
42603;BME280;28233;55.748;48.752;2024-01-07T00:17:44;98788.47;;;-21.21;85.90
42603;BME280;28233;55.748;48.752;2024-01-07T00:19:47;98789.28;;;-21.30;85.51
42603;BME280;28233;55.748;48.752;2024-01-07T00:21:50;98790.78;;;-21.38;84.90
42603;BME280;28233;55.748;48.752;2024-01-07T00:23:53;98790.00;;;-21.48;83.85
42603;BME280;28233;55.748;48.752;2024-01-07T00:25:56;98788.09;;;-21.56;84.30
42603;BME280;28233;55.748;48.752;2024-01-07T00:27:59;98778.19;;;-21.52;83.90
42603;BME280;28233;55.748;48.752;2024-01-07T00:30:02;98774.63;;;-21.51;83.98
42603;BME280;28233;55.748;48.752;2024-01-07T00:32:06;98786.41;;;-21.47;83.89
42603;BME280;28233;55.748;48.752;2024-01-07T00:34:09;98788.09;;;-21.46;84.08
42603;BME280;28233;55.748;48.752;2024-01-07T00:36:12;98791.63;;;-21.47;83.56
42603;BME280;28233;55.748;48.752;2024-01-07T00:38:15;98787.38;;;-21.48;83.28
42603;BME280;28233;55.748;48.752;2024-01-07T00:40:18;98784.91;;;-21.49;83.92
42603;BME280;28233;55.748;48.752;2024-01-07T00:42:21;98781.06;;;-21.45;84.57
42603;BME280;28233;55.748;48.752;2024-01-07T00:44:23;98764.31;;;-21.43;84.33
42603;BME280;28233;55.748;48.752;2024-01-07T00:46:27;98776.09;;;-21.39;84.28
42603;BME280;28233;55.748;48.752;2024-01-07T00:48:30;98772.00;;;-21.32;84.88
42603;BME280;28233;55.748;48.752;2024-01-07T00:50:33;98765.38;;;-21.26;84.85
42603;BME280;28233;55.748;48.752;2024-01-07T00:52:35;98770.59;;;-21.16;85.41
42603;BME280;28233;55.748;48.752;2024-01-07T00:54:39;98771.28;;;-21.04;86.36
42603;BME280;28233;55.748;48.752;2024-01-07T00:56:42;98757.53;;;-20.97;86.64
42603;BME280;28233;55.748;48.752;2024-01-07T00:58:45;98761.25;;;-20.90;86.61
42603;BME280;28233;55.748;48.752;2024-01-07T01:00:47;98767.16;;;-20.87;86.60
42603;BME280;28233;55.748;48.752;2024-01-07T01:02:50;98749.56;;;-20.95;86.08
42603;BME280;28233;55.748;48.752;2024-01-07T01:04:53;98761.50;;;-20.83;86.46
42603;BME280;28233;55.748;48.752;2024-01-07T01:06:57;98768.19;;;-20.71;86.71
42603;BME280;28233;55.748;48.752;2024-01-07T01:09:00;98754.16;;;-20.70;86.72
42603;BME280;28233;55.748;48.752;2024-01-07T01:11:03;98750.44;;;-20.67;86.07
42603;BME280;28233;55.748;48.752;2024-01-07T01:13:05;98759.94;;;-20.66;85.85
42603;BME280;28233;55.748;48.752;2024-01-07T01:15:09;98754.31;;;-20.61;85.53
42603;BME280;28233;55.748;48.752;2024-01-07T01:17:12;98757.31;;;-20.56;85.93
42603;BME280;28233;55.748;48.752;2024-01-07T01:19:14;98752.56;;;-20.53;86.08
42603;BME280;28233;55.748;48.752;2024-01-07T01:21:18;98749.13;;;-20.53;85.77
42603;BME280;28233;55.748;48.752;2024-01-07T01:23:20;98741.31;;;-20.53;85.16
42603;BME280;28233;55.748;48.752;2024-01-07T01:25:23;98739.84;;;-20.56;85.18
42603;BME280;28233;55.748;48.752;2024-01-07T01:27:26;98743.78;;;-20.52;85.31
42603;BME280;28233;55.748;48.752;2024-01-07T01:29:29;98737.88;;;-20.54;84.96
42603;BME280;28233;55.748;48.752;2024-01-07T01:31:32;98734.97;;;-20.51;85.42
42603;BME280;28233;55.748;48.752;2024-01-07T01:33:34;98747.34;;;-20.43;86.03
42603;BME280;28233;55.748;48.752;2024-01-07T01:35:37;98747.03;;;-20.40;85.74
42603;BME280;28233;55.748;48.752;2024-01-07T01:37:40;98751.84;;;-20.35;86.16
42603;BME280;28233;55.748;48.752;2024-01-07T01:39:43;98755.66;;;-20.30;85.13
42603;BME280;28233;55.748;48.752;2024-01-07T01:41:46;98751.25;;;-20.29;85.28
42603;BME280;28233;55.748;48.752;2024-01-07T01:43:48;98760.19;;;-20.32;84.76
42603;BME280;28233;55.748;48.752;2024-01-07T01:45:52;98762.03;;;-20.42;83.66
42603;BME280;28233;55.748;48.752;2024-01-07T01:47:55;98759.59;;;-20.53;82.78
42603;BME280;28233;55.748;48.752;2024-01-07T01:49:58;98754.13;;;-20.60;83.41
42603;BME280;28233;55.748;48.752;2024-01-07T01:52:03;98757.03;;;-20.63;83.13
42603;BME280;28233;55.748;48.752;2024-01-07T01:54:06;98752.63;;;-20.62;83.43
42603;BME280;28233;55.748;48.752;2024-01-07T01:56:09;98751.94;;;-20.64;83.61
42603;BME280;28233;55.748;48.752;2024-01-07T01:58:13;98752.13;;;-20.66;82.68
42603;BME280;28233;55.748;48.752;2024-01-07T02:00:16;98752.38;;;-20.69;82.91
42603;BME280;28233;55.748;48.752;2024-01-07T02:02:19;98751.16;;;-20.75;82.76
42603;BME280;28233;55.748;48.752;2024-01-07T02:04:22;98749.38;;;-20.74;83.25
42603;BME280;28233;55.748;48.752;2024-01-07T02:06:25;98747.06;;;-20.77;82.96
42603;BME280;28233;55.748;48.752;2024-01-07T02:08:29;98751.28;;;-20.76;83.43
42603;BME280;28233;55.748;48.752;2024-01-07T02:10:32;98757.50;;;-20.77;83.08
42603;BME280;28233;55.748;48.752;2024-01-07T02:12:42;98761.22;;;-20.80;83.08
42603;BME280;28233;55.748;48.752;2024-01-07T02:14:45;98757.63;;;-20.79;83.45
42603;BME280;28233;55.748;48.752;2024-01-07T02:16:48;98759.97;;;-20.76;83.01
42603;BME280;28233;55.748;48.752;2024-01-07T02:18:50;98756.09;;;-20.72;83.50
42603;BME280;28233;55.748;48.752;2024-01-07T02:20:53;98754.59;;;-20.74;83.69
42603;BME280;28233;55.748;48.752;2024-01-07T02:22:56;98758.47;;;-20.78;83.10
42603;BME280;28233;55.748;48.752;2024-01-07T02:25:00;98752.16;;;-20.85;83.04
42603;BME280;28233;55.748;48.752;2024-01-07T02:27:05;98759.84;;;-20.84;83.24
42603;BME280;28233;55.748;48.752;2024-01-07T02:29:08;98751.88;;;-20.82;83.63
42603;BME280;28233;55.748;48.752;2024-01-07T02:31:11;98756.41;;;-20.84;83.07
42603;BME280;28233;55.748;48.752;2024-01-07T02:33:14;98758.34;;;-20.86;83.32
42603;BME280;28233;55.748;48.752;2024-01-07T02:35:16;98769.19;;;-20.91;83.04
42603;BME280;28233;55.748;48.752;2024-01-07T02:37:20;98767.28;;;-20.89;83.00
42603;BME280;28233;55.748;48.752;2024-01-07T02:39:23;98764.97;;;-20.92;82.58
42603;BME280;28233;55.748;48.752;2024-01-07T02:41:25;98766.47;;;-20.99;83.17
42603;BME280;28233;55.748;48.752;2024-01-07T02:43:29;98769.78;;;-20.97;83.21
42603;BME280;28233;55.748;48.752;2024-01-07T02:45:32;98764.28;;;-20.94;83.41
42603;BME280;28233;55.748;48.752;2024-01-07T02:47:34;98767.69;;;-20.94;83.41
42603;BME280;28233;55.748;48.752;2024-01-07T02:49:37;98779.22;;;-20.86;84.27
42603;BME280;28233;55.748;48.752;2024-01-07T02:51:40;98777.72;;;-20.89;82.91
42603;BME280;28233;55.748;48.752;2024-01-07T02:53:43;98782.13;;;-20.90;83.43
42603;BME280;28233;55.748;48.752;2024-01-07T02:55:46;98778.25;;;-20.95;83.05
42603;BME280;28233;55.748;48.752;2024-01-07T02:57:48;98780.34;;;-20.99;82.71
42603;BME280;28233;55.748;48.752;2024-01-07T02:59:51;98786.50;;;-21.00;82.32
42603;BME280;28233;55.748;48.752;2024-01-07T03:01:54;98795.03;;;-20.98;82.91
42603;BME280;28233;55.748;48.752;2024-01-07T03:03:57;98799.16;;;-21.05;82.20
42603;BME280;28233;55.748;48.752;2024-01-07T03:06:00;98791.72;;;-21.00;82.89
42603;BME280;28233;55.748;48.752;2024-01-07T03:08:03;98800.41;;;-20.99;82.62
42603;BME280;28233;55.748;48.752;2024-01-07T03:10:06;98799.97;;;-21.04;82.63
42603;BME280;28233;55.748;48.752;2024-01-07T03:12:09;98804.13;;;-21.02;82.77
42603;BME280;28233;55.748;48.752;2024-01-07T03:14:12;98804.53;;;-21.06;82.85
42603;BME280;28233;55.748;48.752;2024-01-07T03:16:25;98814.00;;;-21.05;82.42
42603;BME280;28233;55.748;48.752;2024-01-07T03:18:29;98812.63;;;-21.00;82.70
42603;BME280;28233;55.748;48.752;2024-01-07T03:20:32;98807.25;;;-20.98;82.34
42603;BME280;28233;55.748;48.752;2024-01-07T03:22:35;98803.56;;;-20.96;83.22
42603;BME280;28233;55.748;48.752;2024-01-07T03:24:38;98812.88;;;-20.93;82.74
42603;BME280;28233;55.748;48.752;2024-01-07T03:26:41;98826.63;;;-20.91;82.63
42603;BME280;28233;55.748;48.752;2024-01-07T03:28:44;98829.81;;;-20.87;82.42
42603;BME280;28233;55.748;48.752;2024-01-07T03:30:46;98821.97;;;-20.87;82.38
42603;BME280;28233;55.748;48.752;2024-01-07T03:32:49;98818.78;;;-20.91;82.08
42603;BME280;28233;55.748;48.752;2024-01-07T03:34:52;98827.03;;;-20.86;82.32
42603;BME280;28233;55.748;48.752;2024-01-07T03:36:56;98826.75;;;-20.93;82.09
42603;BME280;28233;55.748;48.752;2024-01-07T03:38:59;98837.19;;;-20.93;81.87
42603;BME280;28233;55.748;48.752;2024-01-07T03:41:03;98832.53;;;-20.89;81.97
42603;BME280;28233;55.748;48.752;2024-01-07T03:43:06;98832.94;;;-20.94;81.63
42603;BME280;28233;55.748;48.752;2024-01-07T03:45:09;98825.81;;;-20.92;82.12
42603;BME280;28233;55.748;48.752;2024-01-07T03:47:12;98833.78;;;-20.93;81.38
42603;BME280;28233;55.748;48.752;2024-01-07T03:49:15;98838.44;;;-20.87;82.14
42603;BME280;28233;55.748;48.752;2024-01-07T03:51:17;98841.19;;;-20.88;81.50
42603;BME280;28233;55.748;48.752;2024-01-07T03:53:20;98848.88;;;-20.87;81.57
42603;BME280;28233;55.748;48.752;2024-01-07T03:55:23;98841.19;;;-20.88;81.30
42603;BME280;28233;55.748;48.752;2024-01-07T03:57:26;98837.75;;;-20.89;80.98
42603;BME280;28233;55.748;48.752;2024-01-07T03:59:29;98840.78;;;-20.94;81.06
42603;BME280;28233;55.748;48.752;2024-01-07T04:01:31;98837.47;;;-20.96;80.98
42603;BME280;28233;55.748;48.752;2024-01-07T04:03:34;98839.41;;;-20.98;81.31
42603;BME280;28233;55.748;48.752;2024-01-07T04:05:37;98843.00;;;-20.99;81.13
42603;BME280;28233;55.748;48.752;2024-01-07T04:07:40;98842.69;;;-20.96;81.26
42603;BME280;28233;55.748;48.752;2024-01-07T04:09:43;98850.81;;;-20.99;81.62
42603;BME280;28233;55.748;48.752;2024-01-07T04:11:47;98839.13;;;-21.04;81.25
42603;BME280;28233;55.748;48.752;2024-01-07T04:13:50;98851.34;;;-21.05;81.43
42603;BME280;28233;55.748;48.752;2024-01-07T04:15:53;98848.34;;;-21.00;81.58
42603;BME280;28233;55.748;48.752;2024-01-07T04:17:56;98861.25;;;-20.99;81.49
42603;BME280;28233;55.748;48.752;2024-01-07T04:19:59;98847.22;;;-20.98;81.58
42603;BME280;28233;55.748;48.752;2024-01-07T04:22:02;98847.78;;;-20.94;81.33
42603;BME280;28233;55.748;48.752;2024-01-07T04:24:05;98862.63;;;-20.95;81.49
42603;BME280;28233;55.748;48.752;2024-01-07T04:26:08;98851.91;;;-21.01;80.81
42603;BME280;28233;55.748;48.752;2024-01-07T04:28:11;98844.09;;;-21.01;81.04
42603;BME280;28233;55.748;48.752;2024-01-07T04:30:14;98851.50;;;-21.06;80.88
42603;BME280;28233;55.748;48.752;2024-01-07T04:32:17;98844.34;;;-21.04;81.13
42603;BME280;28233;55.748;48.752;2024-01-07T04:34:20;98853.03;;;-21.04;80.83
42603;BME280;28233;55.748;48.752;2024-01-07T04:36:22;98855.06;;;-21.07;80.93
42603;BME280;28233;55.748;48.752;2024-01-07T04:38:26;98857.81;;;-21.09;81.01
42603;BME280;28233;55.748;48.752;2024-01-07T04:40:29;98857.97;;;-21.11;81.55
42603;BME280;28233;55.748;48.752;2024-01-07T04:42:32;98851.63;;;-21.08;81.93
42603;BME280;28233;55.748;48.752;2024-01-07T04:44:35;98860.16;;;-21.06;82.06
42603;BME280;28233;55.748;48.752;2024-01-07T04:46:38;98855.63;;;-21.04;81.57
42603;BME280;28233;55.748;48.752;2024-01-07T04:48:42;98855.63;;;-21.04;81.66
42603;BME280;28233;55.748;48.752;2024-01-07T04:50:45;98866.19;;;-20.96;81.90
42603;BME280;28233;55.748;48.752;2024-01-07T04:52:47;98855.91;;;-20.97;82.19
42603;BME280;28233;55.748;48.752;2024-01-07T04:54:51;98862.91;;;-20.98;81.79
42603;BME280;28233;55.748;48.752;2024-01-07T04:56:54;98861.25;;;-20.99;81.84
42603;BME280;28233;55.748;48.752;2024-01-07T04:58:57;98860.28;;;-20.98;82.09
42603;BME280;28233;55.748;48.752;2024-01-07T05:01:00;98874.03;;;-20.96;82.10
42603;BME280;28233;55.748;48.752;2024-01-07T05:03:03;98865.91;;;-20.93;82.22
42603;BME280;28233;55.748;48.752;2024-01-07T05:05:08;98867.56;;;-20.92;81.94
42603;BME280;28233;55.748;48.752;2024-01-07T05:07:11;98860.97;;;-20.96;82.10
42603;BME280;28233;55.748;48.752;2024-01-07T05:09:14;98864.56;;;-20.97;81.60
42603;BME280;28233;55.748;48.752;2024-01-07T05:11:17;98861.38;;;-21.00;81.70
42603;BME280;28233;55.748;48.752;2024-01-07T05:13:20;98867.16;;;-21.06;81.55
42603;BME280;28233;55.748;48.752;2024-01-07T05:15:23;98870.31;;;-21.03;82.34
42603;BME280;28233;55.748;48.752;2024-01-07T05:17:26;98875.25;;;-21.00;82.33
42603;BME280;28233;55.748;48.752;2024-01-07T05:19:28;98864.56;;;-21.06;81.45
42603;BME280;28233;55.748;48.752;2024-01-07T05:21:31;98856.03;;;-21.08;81.80
42603;BME280;28233;55.748;48.752;2024-01-07T05:23:34;98870.31;;;-21.03;81.89
42603;BME280;28233;55.748;48.752;2024-01-07T05:25:37;98869.91;;;-21.08;81.57
42603;BME280;28233;55.748;48.752;2024-01-07T05:27:40;98864.00;;;-21.00;82.12
42603;BME280;28233;55.748;48.752;2024-01-07T05:29:45;98862.78;;;-21.06;82.24
42603;BME280;28233;55.748;48.752;2024-01-07T05:31:49;98873.91;;;-21.04;81.65
42603;BME280;28233;55.748;48.752;2024-01-07T05:33:52;98875.25;;;-21.00;81.72
42603;BME280;28233;55.748;48.752;2024-01-07T05:35:55;98870.59;;;-20.96;81.79
42603;BME280;28233;55.748;48.752;2024-01-07T05:37:58;98869.09;;;-20.99;81.75
42603;BME280;28233;55.748;48.752;2024-01-07T05:40:01;98877.19;;;-20.92;81.85
42603;BME280;28233;55.748;48.752;2024-01-07T05:42:05;98881.44;;;-20.91;81.33
42603;BME280;28233;55.748;48.752;2024-01-07T05:44:08;98875.00;;;-20.97;81.46
42603;BME280;28233;55.748;48.752;2024-01-07T05:46:11;98877.19;;;-20.92;81.48
42603;BME280;28233;55.748;48.752;2024-01-07T05:48:14;98868.69;;;-20.94;81.82
42603;BME280;28233;55.748;48.752;2024-01-07T05:50:17;98872.22;;;-20.95;81.66
42603;BME280;28233;55.748;48.752;2024-01-07T05:52:22;98879.66;;;-20.91;81.62
42603;BME280;28233;55.748;48.752;2024-01-07T05:54:26;98870.19;;;-20.92;81.70
42603;BME280;28233;55.748;48.752;2024-01-07T05:56:38;98885.03;;;-20.92;81.73
42603;BME280;28233;55.748;48.752;2024-01-07T05:58:43;98885.03;;;-20.92;81.57
42603;BME280;28233;55.748;48.752;2024-01-07T06:00:45;98885.72;;;-20.90;81.32
42603;BME280;28233;55.748;48.752;2024-01-07T06:02:48;98889.56;;;-20.94;80.87
42603;BME280;28233;55.748;48.752;2024-01-07T06:04:51;98887.78;;;-20.94;81.00
42603;BME280;28233;55.748;48.752;2024-01-07T06:06:55;98882.13;;;-20.89;81.49
42603;BME280;28233;55.748;48.752;2024-01-07T06:08:58;98896.56;;;-20.95;81.21
42603;BME280;28233;55.748;48.752;2024-01-07T06:11:01;98890.09;;;-20.91;81.24
42603;BME280;28233;55.748;48.752;2024-01-07T06:13:04;98888.47;;;-20.92;80.91
42603;BME280;28233;55.748;48.752;2024-01-07T06:15:07;98896.69;;;-20.86;81.09
42603;BME280;28233;55.748;48.752;2024-01-07T06:17:10;98884.47;;;-20.96;81.45
42603;BME280;28233;55.748;48.752;2024-01-07T06:19:17;98900.41;;;-20.89;81.21
42603;BME280;28233;55.748;48.752;2024-01-07T06:21:20;98889.41;;;-20.93;81.56
42603;BME280;28233;55.748;48.752;2024-01-07T06:23:23;98888.88;;;-20.86;81.83
42603;BME280;28233;55.748;48.752;2024-01-07T06:25:26;98893.00;;;-20.84;81.75
42603;BME280;28233;55.748;48.752;2024-01-07T06:27:29;98894.78;;;-20.84;82.02
42603;BME280;28233;55.748;48.752;2024-01-07T06:29:31;98886.25;;;-20.86;81.52
42603;BME280;28233;55.748;48.752;2024-01-07T06:31:34;98888.16;;;-20.79;81.91
42603;BME280;28233;55.748;48.752;2024-01-07T06:33:38;98885.16;;;-20.74;81.89
42603;BME280;28233;55.748;48.752;2024-01-07T06:35:41;98883.63;;;-20.67;81.78
42603;BME280;28233;55.748;48.752;2024-01-07T06:37:44;98884.31;;;-20.65;81.72
42603;BME280;28233;55.748;48.752;2024-01-07T06:39:47;98880.19;;;-20.58;81.27
42603;BME280;28233;55.748;48.752;2024-01-07T06:41:50;98880.13;;;-20.48;81.50
42603;BME280;28233;55.748;48.752;2024-01-07T06:43:53;98873.38;;;-20.41;81.17
42603;BME280;28233;55.748;48.752;2024-01-07T06:45:59;98871.06;;;-20.44;80.74
42603;BME280;28233;55.748;48.752;2024-01-07T06:48:02;98883.97;;;-20.33;81.07
42603;BME280;28233;55.748;48.752;2024-01-07T06:50:05;98887.81;;;-20.37;80.59
42603;BME280;28233;55.748;48.752;2024-01-07T06:52:08;98886.31;;;-20.39;80.48
42603;BME280;28233;55.748;48.752;2024-01-07T06:54:11;98889.06;;;-20.41;80.25
42603;BME280;28233;55.748;48.752;2024-01-07T06:56:16;98897.47;;;-20.37;80.27
42603;BME280;28233;55.748;48.752;2024-01-07T06:58:19;98890.59;;;-20.38;80.78
42603;BME280;28233;55.748;48.752;2024-01-07T07:00:22;98888.94;;;-20.39;80.67
42603;BME280;28233;55.748;48.752;2024-01-07T07:02:25;98880.38;;;-20.32;80.48
42603;BME280;28233;55.748;48.752;2024-01-07T07:04:27;98896.63;;;-20.28;80.16
42603;BME280;28233;55.748;48.752;2024-01-07T07:06:30;98886.28;;;-20.30;79.60
42603;BME280;28233;55.748;48.752;2024-01-07T07:08:33;98885.47;;;-20.30;80.05
42603;BME280;28233;55.748;48.752;2024-01-07T07:10:36;98893.72;;;-20.25;80.32
42603;BME280;28233;55.748;48.752;2024-01-07T07:12:39;98886.16;;;-20.28;80.15
42603;BME280;28233;55.748;48.752;2024-01-07T07:14:42;98887.69;;;-20.35;80.24
42603;BME280;28233;55.748;48.752;2024-01-07T07:16:45;98885.63;;;-20.41;79.78
42603;BME280;28233;55.748;48.752;2024-01-07T07:18:50;98895.13;;;-20.40;79.85
42603;BME280;28233;55.748;48.752;2024-01-07T07:20:53;98890.84;;;-20.41;79.82
42603;BME280;28233;55.748;48.752;2024-01-07T07:22:55;98895.81;;;-20.38;79.79
42603;BME280;28233;55.748;48.752;2024-01-07T07:24:58;98893.88;;;-20.36;80.11
42603;BME280;28233;55.748;48.752;2024-01-07T07:27:06;98902.81;;;-20.39;80.47
42603;BME280;28233;55.748;48.752;2024-01-07T07:29:09;98893.59;;;-20.33;80.07
42603;BME280;28233;55.748;48.752;2024-01-07T07:31:14;98894.28;;;-20.21;80.03
42603;BME280;28233;55.748;48.752;2024-01-07T07:33:17;98900.97;;;-20.09;80.52
42603;BME280;28233;55.748;48.752;2024-01-07T07:35:21;98908.66;;;-19.98;80.53
42603;BME280;28233;55.748;48.752;2024-01-07T07:37:23;98901.88;;;-19.91;80.27
42603;BME280;28233;55.748;48.752;2024-01-07T07:39:27;98901.59;;;-19.88;79.80
42603;BME280;28233;55.748;48.752;2024-01-07T07:41:30;98909.88;;;-19.92;79.17
42603;BME280;28233;55.748;48.752;2024-01-07T07:43:33;98901.94;;;-20.00;79.18
42603;BME280;28233;55.748;48.752;2024-01-07T07:45:36;98916.47;;;-19.88;79.00
42603;BME280;28233;55.748;48.752;2024-01-07T07:47:38;98904.34;;;-19.89;78.95
42603;BME280;28233;55.748;48.752;2024-01-07T07:49:47;98908.03;;;-19.82;78.84
42603;BME280;28233;55.748;48.752;2024-01-07T07:51:53;98912.22;;;-19.99;77.81
42603;BME280;28233;55.748;48.752;2024-01-07T07:53:55;98910.31;;;-20.07;78.09
42603;BME280;28233;55.748;48.752;2024-01-07T07:55:58;98915.56;;;-20.16;78.25
42603;BME280;28233;55.748;48.752;2024-01-07T07:58:01;98917.50;;;-20.18;78.37
42603;BME280;28233;55.748;48.752;2024-01-07T08:00:07;98911.47;;;-20.19;78.10
42603;BME280;28233;55.748;48.752;2024-01-07T08:02:11;98911.47;;;-20.29;78.73
42603;BME280;28233;55.748;48.752;2024-01-07T08:04:17;98921.22;;;-20.21;78.71
42603;BME280;28233;55.748;48.752;2024-01-07T08:06:20;98918.75;;;-20.22;78.11
42603;BME280;28233;55.748;48.752;2024-01-07T08:08:23;98919.16;;;-20.27;77.87
42603;BME280;28233;55.748;48.752;2024-01-07T08:10:26;98915.28;;;-20.13;78.51
42603;BME280;28233;55.748;48.752;2024-01-07T08:12:31;98913.66;;;-20.14;78.53
42603;BME280;28233;55.748;48.752;2024-01-07T08:14:34;98915.03;;;-20.10;78.98
42603;BME280;28233;55.748;48.752;2024-01-07T08:16:37;98911.03;;;-20.14;78.31
42603;BME280;28233;55.748;48.752;2024-01-07T08:18:41;98922.59;;;-20.17;78.18
42603;BME280;28233;55.748;48.752;2024-01-07T08:20:44;98918.06;;;-20.25;78.74
42603;BME280;28233;55.748;48.752;2024-01-07T08:22:47;98916.00;;;-20.21;78.71
42603;BME280;28233;55.748;48.752;2024-01-07T08:24:50;98907.31;;;-20.12;78.28
42603;BME280;28233;55.748;48.752;2024-01-07T08:26:53;98905.34;;;-20.00;78.11
42603;BME280;28233;55.748;48.752;2024-01-07T08:28:57;98913.59;;;-19.95;78.00
42603;BME280;28233;55.748;48.752;2024-01-07T08:30:59;98905.63;;;-19.93;77.71
42603;BME280;28233;55.748;48.752;2024-01-07T08:33:02;98906.13;;;-19.90;76.87
42603;BME280;28233;55.748;48.752;2024-01-07T08:35:06;98891.69;;;-19.84;78.31
42603;BME280;28233;55.748;48.752;2024-01-07T08:37:08;98900.38;;;-19.66;78.51
42603;BME280;28233;55.748;48.752;2024-01-07T08:39:15;98900.47;;;-19.57;77.68
42603;BME280;28233;55.748;48.752;2024-01-07T08:41:18;98903.81;;;-19.65;77.06
42603;BME280;28233;55.748;48.752;2024-01-07T08:43:21;98911.00;;;-19.67;76.39
42603;BME280;28233;55.748;48.752;2024-01-07T08:45:25;98905.47;;;-19.64;77.56
42603;BME280;28233;55.748;48.752;2024-01-07T08:47:27;98917.72;;;-19.65;77.24
42603;BME280;28233;55.748;48.752;2024-01-07T08:49:31;98906.69;;;-19.86;75.94
42603;BME280;28233;55.748;48.752;2024-01-07T08:51:37;98922.63;;;-19.79;76.83
42603;BME280;28233;55.748;48.752;2024-01-07T08:53:40;98924.19;;;-19.96;76.16
42603;BME280;28233;55.748;48.752;2024-01-07T08:55:43;98925.25;;;-19.89;76.37
42603;BME280;28233;55.748;48.752;2024-01-07T08:57:46;98920.44;;;-19.94;76.21
42603;BME280;28233;55.748;48.752;2024-01-07T08:59:51;98919.25;;;-19.99;76.40
42603;BME280;28233;55.748;48.752;2024-01-07T09:01:55;98922.00;;;-19.91;76.89
42603;BME280;28233;55.748;48.752;2024-01-07T09:03:58;98921.78;;;-19.80;76.45
42603;BME280;28233;55.748;48.752;2024-01-07T09:06:01;98909.00;;;-19.83;75.91
42603;BME280;28233;55.748;48.752;2024-01-07T09:08:05;98911.19;;;-19.78;75.96
42603;BME280;28233;55.748;48.752;2024-01-07T09:10:09;98913.25;;;-19.72;76.54
42603;BME280;28233;55.748;48.752;2024-01-07T09:12:13;98916.69;;;-19.72;76.04
42603;BME280;28233;55.748;48.752;2024-01-07T09:14:16;98913.19;;;-19.63;76.03
42603;BME280;28233;55.748;48.752;2024-01-07T09:16:19;98922.22;;;-19.57;75.88
42603;BME280;28233;55.748;48.752;2024-01-07T09:18:22;98923.03;;;-19.74;75.42
42603;BME280;28233;55.748;48.752;2024-01-07T09:20:25;98918.06;;;-19.77;74.93
42603;BME280;28233;55.748;48.752;2024-01-07T09:22:28;98909.13;;;-19.75;75.45
42603;BME280;28233;55.748;48.752;2024-01-07T09:24:30;98911.16;;;-19.69;74.90
42603;BME280;28233;55.748;48.752;2024-01-07T09:26:34;98921.97;;;-19.64;75.44
42603;BME280;28233;55.748;48.752;2024-01-07T09:28:37;98919.19;;;-19.80;74.43
42603;BME280;28233;55.748;48.752;2024-01-07T09:30:40;98908.88;;;-19.81;74.71
42603;BME280;28233;55.748;48.752;2024-01-07T09:32:43;98926.75;;;-19.77;74.98
42603;BME280;28233;55.748;48.752;2024-01-07T09:34:53;98914.94;;;-19.81;75.20
42603;BME280;28233;55.748;48.752;2024-01-07T09:36:56;98923.84;;;-19.74;75.46
42603;BME280;28233;55.748;48.752;2024-01-07T09:38:59;98923.97;;;-19.75;74.69
42603;BME280;28233;55.748;48.752;2024-01-07T09:41:02;98922.34;;;-19.76;74.02
42603;BME280;28233;55.748;48.752;2024-01-07T09:43:05;98929.63;;;-19.80;74.14
42603;BME280;28233;55.748;48.752;2024-01-07T09:45:12;98934.72;;;-19.78;74.50
42603;BME280;28233;55.748;48.752;2024-01-07T09:47:16;98936.63;;;-19.71;74.36
42603;BME280;28233;55.748;48.752;2024-01-07T09:49:19;98938.31;;;-19.79;73.75
42603;BME280;28233;55.748;48.752;2024-01-07T09:51:22;98934.88;;;-19.80;74.68
42603;BME280;28233;55.748;48.752;2024-01-07T09:53:30;98930.22;;;-19.86;73.89
42603;BME280;28233;55.748;48.752;2024-01-07T09:55:39;98934.09;;;-19.90;73.92
42603;BME280;28233;55.748;48.752;2024-01-07T09:57:44;98932.84;;;-19.86;74.10
42603;BME280;28233;55.748;48.752;2024-01-07T09:59:47;98940.13;;;-19.90;73.91
42603;BME280;28233;55.748;48.752;2024-01-07T10:01:50;98934.09;;;-19.90;74.12
42603;BME280;28233;55.748;48.752;2024-01-07T10:03:58;98938.59;;;-19.83;74.19
42603;BME280;28233;55.748;48.752;2024-01-07T10:06:01;98932.16;;;-19.88;73.50
42603;BME280;28233;55.748;48.752;2024-01-07T10:08:07;98942.47;;;-19.87;74.00
42603;BME280;28233;55.748;48.752;2024-01-07T10:10:15;98952.94;;;-19.96;73.65
42603;BME280;28233;55.748;48.752;2024-01-07T10:12:23;98940.69;;;-19.86;73.38
42603;BME280;28233;55.748;48.752;2024-01-07T10:14:26;98938.59;;;-19.83;74.32
42603;BME280;28233;55.748;48.752;2024-01-07T10:16:32;98925.50;;;-19.83;74.35
42603;BME280;28233;55.748;48.752;2024-01-07T10:18:36;98949.44;;;-19.77;74.02
42603;BME280;28233;55.748;48.752;2024-01-07T10:20:40;98951.56;;;-19.91;73.90
42603;BME280;28233;55.748;48.752;2024-01-07T10:22:51;98944.44;;;-19.98;73.79
42603;BME280;28233;55.748;48.752;2024-01-07T10:24:54;98950.91;;;-20.02;73.74
42603;BME280;28233;55.748;48.752;2024-01-07T10:26:57;98945.81;;;-20.04;74.20
42603;BME280;28233;55.748;48.752;2024-01-07T10:29:00;98952.84;;;-20.05;73.70
42603;BME280;28233;55.748;48.752;2024-01-07T10:31:03;98951.59;;;-20.00;73.83
42603;BME280;28233;55.748;48.752;2024-01-07T10:33:07;98958.75;;;-20.02;73.90
42603;BME280;28233;55.748;48.752;2024-01-07T10:35:13;98953.94;;;-20.07;73.67
42603;BME280;28233;55.748;48.752;2024-01-07T10:37:19;98958.22;;;-20.16;73.62